Flight Track Log - Related Links

Times and Time Zones

All times are in EDT time to prevent confusion due to time zone crossing. See the RPA3496 flight status page for this flight to view local times or setup timezone preferences in your user account.


Time Position Orientation Groundspeed Altitude Reporting Facility
EDT Latitude Longitude Course Direction KTS MPH feet Rate Location/Type
Thu 03:41:00 PM 39.8500 -75.0151 90° East  Level FlightAware Approximate
Thu 03:42:00 PM 39.8641 -74.9491 44° Northeast  Level FlightAware Approximate
Thu 03:43:00 PM 39.9050 -74.8979 44° Northeast  Level FlightAware Approximate
Thu 03:44:00 PM 39.9462 -74.8474 49° Northeast  Level FlightAware Approximate
Thu 03:45:00 PM 40.0667 -74.6833 47° Northeast 285 328 8,000  Level New York TRACON
Thu 03:45:00 PM 39.9851 -74.7937 44° Northeast  Level FlightAware Approximate
Thu 03:46:00 PM 40.1167 -74.6000 52° Northeast 282 325 8,000  Level New York TRACON
Thu 03:46:00 PM 40.0260 -74.7425 44° Northeast  Level FlightAware Approximate
Thu 03:47:00 PM 40.1833 -74.5333 37° Northeast 283 326 8,000  Level New York TRACON
Thu 03:47:00 PM 40.0588 -74.6824 57° Northeast  Level FlightAware Approximate
Thu 03:48:00 PM 40.0978 -74.6294 47° Northeast  Level FlightAware Approximate
Thu 03:48:00 PM 40.2333 -74.4667 45° Northeast 278 320 8,000  Level New York TRACON
Thu 03:49:00 PM 40.1361 -74.5747 47° Northeast  Level FlightAware Approximate
Thu 03:49:06 PM 40.3000 -74.3833 44° Northeast 278 320 7,800  Level New York TRACON
Thu 03:50:00 PM 40.1744 -74.5200 48° Northeast  Level FlightAware Approximate
Thu 03:50:06 PM 40.3500 -74.3167 45° Northeast 276 318 7,000  Level New York TRACON
Thu 03:51:00 PM 40.2139 -74.4667 42° Northeast  Level FlightAware Approximate
Thu 03:51:06 PM 40.4000 -74.2500 45° Northeast 274 315 7,000  Level New York TRACON
Thu 03:52:00 PM 40.2557 -74.4165 42° Northeast  Level FlightAware Approximate
Thu 03:52:06 PM 40.4500 -74.1667 52° Northeast 275 316 7,000  Level New York TRACON
Thu 03:53:00 PM 40.2965 -74.3650 47° Northeast  Level FlightAware Approximate
Thu 03:53:06 PM 40.5167 -74.1167 30° Northeast 238 274 7,000  Level New York TRACON
Thu 03:54:00 PM 40.3353 -74.3107 47° Northeast  Level FlightAware Approximate
Thu 03:54:06 PM 40.5500 -74.0667 49° Northeast 225 259 5,100  Level New York TRACON
Thu 03:55:06 PM 40.6167 -74.0167 30° Northeast 224 258 4,000 -1,200 Descending New York TRACON
Thu 03:56:06 PM 40.6667 -73.9667 37° Northeast 208 239 2,700 -1,150 Descending New York TRACON
Thu 03:57:06 PM 40.7000 -73.9333 37° Northeast 177 204 1,700 -950 Descending New York TRACON
Thu 03:58:06 PM 40.7333 -73.9167 21° North 134 154 800 -750 Descending New York TRACON
Thu 03:59:06 PM 40.7667 -73.8833 37° Northeast 173 199 200 -600 Descending New York TRACON

Login

Don't have an account? Register now (free) for customized features, flight alerts, and more!